Aviation Digital Data Service (ADDS)

Output produced by METARs form (0816 UTC 23 September 2018)
found at http://www.aviationweather.gov/metar/data/
 
METAR text: KHSE 230751Z AUTO 15010KT 10SM FEW032 OVC065 26/21 A3009 RMK AO2 SLP187 T02610206
Conditions at: KHSE (HATTERAS/MITCHEL, NC, US) observed 0751 UTC 23 September 2018
Temperature: 26.1°C (79°F)
Dewpoint: 20.6°C (69°F) [RH = 72%]
Pressure (altimeter): 30.09 inches Hg (1019.0 mb)
[Sea-level pressure: 1018.7 mb]
Winds: from the SSE (150 degrees) at 12 MPH (10 knots; 5.1 m/s)
Visibility: 10 or more miles (16+ km)
Ceiling: 6500 feet AGL
Clouds: few clouds at 3200 feet AGL
overcast cloud deck at 6500 feet AGL
Weather: automated observation with no human augmentation;
there may or may not be significant weather present at this time

METAR text: KHSE 230651Z AUTO 17012KT 10SM FEW019 SCT037 OVC065 25/22 A3009 RMK AO2 SLP188 T02500222
Conditions at: KHSE (HATTERAS/MITCHEL, NC, US) observed 0651 UTC 23 September 2018
Temperature: 25.0°C (77°F)
Dewpoint: 22.2°C (72°F) [RH = 84%]
Pressure (altimeter): 30.09 inches Hg (1019.0 mb)
[Sea-level pressure: 1018.8 mb]
Winds: from the S (170 degrees) at 14 MPH (12 knots; 6.2 m/s)
Visibility: 10 or more miles (16+ km)
Ceiling: 6500 feet AGL
Clouds: few clouds at 1900 feet AGL
scattered clouds at 3700 feet AGL
overcast cloud deck at 6500 feet AGL
Weather: automated observation with no human augmentation;
there may or may not be significant weather present at this time